Terminal Aerodrome Forecast
Issued by NWS Central Illinois

Home | Current Version | Previous Version | Text Only | Print | Product List | Glossary On
Versions: 1 2 3 4 5 6 7 8 9 10 11 12 13 14 15 16 17 18
000
FTUS43 KILX 281300 AAA
TAFPIA
TAF AMD
KPIA 281329Z 2813/2912 16008KT P6SM BKN120
     FM281500 17014G20KT P6SM SCT120
     FM290000 18012KT P6SM SCT050 BKN150
     FM290600 18010KT P6SM SCT050=

USA.gov is the U.S. government's official web portal to all federal, state and local government web resources and services.